createdAt,value
2019-01-16T00:01:39.607Z,9.90
2019-01-16T00:04:36.858Z,11.23
2019-01-16T00:07:30.994Z,13.57
2019-01-16T00:10:18.333Z,10.07
2019-01-16T00:13:13.303Z,15.70
2019-01-16T00:15:55.078Z,11.00
2019-01-16T00:18:43.765Z,13.23
2019-01-16T00:21:35.483Z,12.53
2019-01-16T00:24:39.532Z,11.57
2019-01-16T00:27:40.117Z,12.17
2019-01-16T00:30:24.642Z,14.10
2019-01-16T00:33:06.781Z,10.57
2019-01-16T00:35:54.132Z,9.43
2019-01-16T00:38:48.695Z,11.03
2019-01-16T00:41:37.352Z,12.60
2019-01-16T00:44:24.816Z,13.47
2019-01-16T00:47:07.346Z,12.63
2019-01-16T00:49:54.743Z,11.10
2019-01-16T00:52:42.419Z,10.07
2019-01-16T00:55:44.224Z,15.53
2019-01-16T00:58:32.939Z,13.43
2019-01-16T01:01:36.964Z,9.97
2019-01-16T01:04:34.572Z,11.73
2019-01-16T01:07:34.047Z,12.43
2019-01-16T01:10:16.417Z,12.70
2019-01-16T01:13:04.103Z,11.80
2019-01-16T01:16:04.875Z,11.17
2019-01-16T01:18:56.349Z,12.03
2019-01-16T01:21:43.833Z,10.50
2019-01-16T01:24:31.454Z,12.90
2019-01-16T01:27:23.133Z,13.13
2019-01-16T01:30:15.096Z,11.17
2019-01-16T01:33:05.188Z,14.50
2019-01-16T01:36:00.178Z,14.63
2019-01-16T01:38:44.589Z,15.17
2019-01-16T01:41:24.011Z,15.77
2019-01-16T01:44:02.923Z,14.57
2019-01-16T01:46:54.811Z,12.90
2019-01-16T01:49:46.505Z,14.90
2019-01-16T01:52:48.120Z,15.73
2019-01-16T01:55:42.803Z,15.60
2019-01-16T01:58:21.565Z,17.30
2019-01-16T02:01:21.450Z,19.27
2019-01-16T02:04:07.524Z,16.23
2019-01-16T02:06:59.060Z,15.90
2019-01-16T02:09:55.750Z,14.10
2019-01-16T02:12:43.260Z,14.43
2019-01-16T02:15:32.298Z,16.80
2019-01-16T02:18:16.378Z,15.43
2019-01-16T02:20:56.718Z,14.47
2019-01-16T02:23:48.456Z,17.47
2019-01-16T02:26:33.315Z,15.40
2019-01-16T02:29:21.764Z,18.73
2019-01-16T02:32:28.846Z,19.43
2019-01-16T02:35:12.689Z,14.00
2019-01-16T02:37:55.697Z,14.53
2019-01-16T02:40:33.804Z,16.50
2019-01-16T02:43:22.163Z,16.53
2019-01-16T02:46:17.133Z,14.33
2019-01-16T02:49:01.075Z,14.73
2019-01-16T02:51:49.820Z,13.83
2019-01-16T02:54:53.885Z,15.23
2019-01-16T02:57:42.541Z,16.37
2019-01-16T03:00:31.439Z,16.57
2019-01-16T03:03:37.368Z,14.70
2019-01-16T03:06:24.922Z,16.30
2019-01-16T03:09:16.678Z,17.37
2019-01-16T03:12:03.368Z,15.30
2019-01-16T03:14:42.958Z,14.23
2019-01-16T03:17:30.278Z,15.57
2019-01-16T03:20:11.235Z,17.97
2019-01-16T03:23:14.530Z,15.03
2019-01-16T03:25:50.917Z,13.73
2019-01-16T03:28:32.075Z,15.23
2019-01-16T03:31:27.050Z,17.07
2019-01-16T03:34:18.727Z,16.20
2019-01-16T03:37:06.392Z,18.73
2019-01-16T03:39:58.142Z,14.40
2019-01-16T03:42:41.911Z,17.77
2019-01-16T03:45:33.382Z,14.80
2019-01-16T03:48:31.219Z,18.10
2019-01-16T03:51:24.016Z,16.67
2019-01-16T03:54:27.715Z,19.43
2019-01-16T03:57:08.066Z,20.50
2019-01-16T03:59:59.813Z,18.80
2019-01-16T04:02:47.429Z,16.17
2019-01-16T04:05:39.151Z,15.20
2019-01-16T04:08:26.723Z,15.40
2019-01-16T04:11:21.486Z,15.77
2019-01-16T04:14:12.984Z,15.83
2019-01-16T04:17:14.054Z,17.93
2019-01-16T04:19:54.922Z,17.63
2019-01-16T04:23:01.741Z,18.67
2019-01-16T04:25:55.774Z,15.67
2019-01-16T04:28:42.609Z,15.63
2019-01-16T04:31:33.524Z,16.93
2019-01-16T04:34:20.228Z,16.33
2019-01-16T04:37:04.672Z,15.00
2019-01-16T04:39:59.561Z,15.23
2019-01-16T04:42:51.078Z,15.47
2019-01-16T04:45:32.557Z,14.13
2019-01-16T04:48:26.878Z,14.50
2019-01-16T04:51:14.548Z,13.83
2019-01-16T04:54:07.748Z,17.23
2019-01-16T04:56:48.556Z,16.57
2019-01-16T04:59:34.670Z,14.20
2019-01-16T05:02:15.971Z,15.83
2019-01-16T05:05:02.092Z,15.17
2019-01-16T05:07:56.732Z,16.07
2019-01-16T05:10:44.004Z,15.87
2019-01-16T05:13:32.671Z,13.30
2019-01-16T05:16:36.519Z,19.13
2019-01-16T05:19:38.574Z,15.63
2019-01-16T05:22:30.492Z,15.90
2019-01-16T05:25:25.200Z,14.93
2019-01-16T05:28:16.752Z,18.20
2019-01-16T05:31:05.436Z,14.80
2019-01-16T05:33:58.459Z,14.10
2019-01-16T05:36:46.211Z,14.20
2019-01-16T05:39:33.643Z,16.37
2019-01-16T05:42:13.708Z,19.03
2019-01-16T05:45:08.985Z,16.13
2019-01-16T05:47:49.505Z,16.10
2019-01-16T05:50:38.371Z,14.00
2019-01-16T05:53:26.166Z,16.90
2019-01-16T05:56:17.821Z,14.33
2019-01-16T05:59:05.295Z,16.33
2019-01-16T06:01:53.857Z,14.47
2019-01-16T06:04:48.362Z,15.27
2019-01-16T06:07:36.011Z,16.33
2019-01-16T06:10:32.700Z,15.87
2019-01-16T06:13:36.799Z,15.77
2019-01-16T06:16:15.435Z,13.10
2019-01-16T06:19:03.582Z,14.07
2019-01-16T06:21:52.298Z,15.17
2019-01-16T06:24:40.041Z,14.37
2019-01-16T06:27:32.539Z,13.70
2019-01-16T06:30:30.692Z,16.60
2019-01-16T06:33:37.648Z,14.37
2019-01-16T06:36:41.467Z,14.40
2019-01-16T06:39:39.441Z,16.23
2019-01-16T06:42:26.826Z,15.60
2019-01-16T06:45:14.567Z,16.33
2019-01-16T06:48:06.302Z,14.43
2019-01-16T06:51:01.125Z,13.30
2019-01-16T06:53:50.862Z,14.07
2019-01-16T06:56:33.245Z,14.30
2019-01-16T06:59:27.938Z,15.90
2019-01-16T07:02:16.681Z,18.50
2019-01-16T07:05:20.633Z,15.57
2019-01-16T07:08:16.296Z,16.83
2019-01-16T07:11:07.857Z,14.57
2019-01-16T07:14:15.077Z,15.30
2019-01-16T07:17:05.890Z,15.30
2019-01-16T07:19:57.942Z,15.80
2019-01-16T07:22:45.810Z,12.80
2019-01-16T07:25:40.452Z,14.30
2019-01-16T07:28:21.472Z,13.40
2019-01-16T07:31:18.476Z,13.87
2019-01-16T07:34:19.261Z,11.47
2019-01-16T07:37:14.801Z,14.37
2019-01-16T07:40:10.672Z,14.83
2019-01-16T07:42:58.330Z,14.07
2019-01-16T07:45:52.794Z,11.13
2019-01-16T07:48:34.564Z,20.83
2019-01-16T07:51:19.648Z,12.37
2019-01-16T07:54:17.426Z,10.87
2019-01-16T07:57:02.266Z,16.70
2019-01-16T07:59:53.728Z,10.83
2019-01-16T08:02:40.679Z,10.97
2019-01-16T08:05:32.570Z,9.40
2019-01-16T08:08:24.526Z,11.73
2019-01-16T08:11:19.608Z,12.63
2019-01-16T08:14:11.022Z,10.70
2019-01-16T08:17:08.790Z,14.50
2019-01-16T08:19:56.163Z,10.30
2019-01-16T08:22:34.700Z,12.03
2019-01-16T08:25:35.609Z,12.40
2019-01-16T08:28:36.767Z,9.10
2019-01-16T08:31:25.006Z,12.00
2019-01-16T08:34:32.351Z,10.33
2019-01-16T08:37:36.300Z,10.40
2019-01-16T08:40:25.334Z,11.07
2019-01-16T08:43:08.176Z,9.67
2019-01-16T08:46:12.250Z,10.93
2019-01-16T08:49:10.864Z,11.77
2019-01-16T08:51:59.625Z,8.60
2019-01-16T08:54:54.123Z,9.63
2019-01-16T08:57:42.808Z,8.57
2019-01-16T09:00:44.861Z,10.07
2019-01-16T09:03:42.662Z,10.63
2019-01-16T09:06:31.395Z,9.60
2019-01-16T09:09:18.970Z,10.30
2019-01-16T09:12:07.886Z,9.80
2019-01-16T09:14:56.601Z,10.40
2019-01-16T09:17:43.875Z,10.63
2019-01-16T09:20:31.469Z,10.10
2019-01-16T09:23:19.188Z,8.60
2019-01-16T09:26:08.863Z,10.13
2019-01-16T09:29:04.276Z,9.83
2019-01-16T09:32:05.220Z,10.30
2019-01-16T09:34:52.536Z,11.33
2019-01-16T09:37:45.269Z,9.73
2019-01-16T09:40:30.460Z,8.30
2019-01-16T09:43:13.700Z,7.53
2019-01-16T09:46:11.435Z,8.37
2019-01-16T09:48:58.903Z,8.67
2019-01-16T09:51:50.604Z,10.23
2019-01-16T09:54:39.279Z,8.13
2019-01-16T09:57:34.319Z,9.23
2019-01-16T10:00:19.897Z,9.70
2019-01-16T10:03:15.037Z,8.73
2019-01-16T10:05:58.175Z,8.00
2019-01-16T10:08:46.855Z,9.57
2019-01-16T10:11:30.584Z,6.93
2019-01-16T10:14:10.281Z,8.60
2019-01-16T10:16:48.026Z,9.60
2019-01-16T10:19:36.653Z,8.20
2019-01-16T10:22:23.990Z,7.13
2019-01-16T10:25:07.854Z,7.13
2019-01-16T10:27:56.512Z,5.63
2019-01-16T10:30:47.940Z,8.07
2019-01-16T10:33:38.310Z,6.87
2019-01-16T10:36:27.060Z,11.63
2019-01-16T10:39:27.793Z,7.20
2019-01-16T10:42:15.699Z,7.73
2019-01-16T10:44:52.286Z,6.63
2019-01-16T10:47:43.389Z,10.30
2019-01-16T10:50:32.597Z,9.03
2019-01-16T10:53:19.873Z,6.60
2019-01-16T10:56:26.891Z,10.03
2019-01-16T10:59:15.581Z,8.90
2019-01-16T11:01:58.471Z,8.27
2019-01-16T11:04:43.283Z,11.93
2019-01-16T11:07:47.224Z,9.73
2019-01-16T11:10:28.584Z,8.77
2019-01-16T11:13:17.277Z,9.17
2019-01-16T11:16:05.024Z,8.97
2019-01-16T11:18:58.570Z,7.07
2019-01-16T11:21:37.569Z,11.70
2019-01-16T11:24:38.373Z,9.87
2019-01-16T11:27:38.722Z,10.43
2019-01-16T11:30:27.603Z,8.17
2019-01-16T11:33:15.076Z,8.50
2019-01-16T11:36:02.378Z,7.57
2019-01-16T11:38:53.859Z,10.73
2019-01-16T11:41:54.590Z,9.53
2019-01-16T11:44:46.152Z,6.23
2019-01-16T11:47:25.362Z,8.10
2019-01-16T11:50:11.436Z,9.93
2019-01-16T11:53:00.040Z,7.43
2019-01-16T11:55:53.757Z,15.50
2019-01-16T11:58:44.394Z,11.43
2019-01-16T12:01:51.504Z,8.43
2019-01-16T12:04:42.874Z,10.83
2019-01-16T12:07:29.767Z,5.57
2019-01-16T12:10:21.256Z,10.27
2019-01-16T12:13:09.333Z,5.43
2019-01-16T12:15:58.010Z,6.50
2019-01-16T12:18:36.293Z,10.30
2019-01-16T12:21:26.569Z,7.00
2019-01-16T12:24:13.645Z,7.17
2019-01-16T12:27:01.291Z,6.67
2019-01-16T12:29:42.281Z,5.73
2019-01-16T12:32:36.790Z,5.53
2019-01-16T12:35:24.349Z,8.67
2019-01-16T12:38:15.876Z,6.47
2019-01-16T12:41:03.369Z,8.10
2019-01-16T12:43:58.295Z,5.60
2019-01-16T12:46:42.208Z,6.23
2019-01-16T12:49:29.463Z,5.17
2019-01-16T12:52:21.131Z,5.33
2019-01-16T12:55:08.737Z,7.57
2019-01-16T12:58:00.215Z,6.57
2019-01-16T13:01:07.232Z,4.43
2019-01-16T13:03:47.239Z,4.50
2019-01-16T13:06:35.941Z,4.80
2019-01-16T13:09:21.464Z,3.63
2019-01-16T13:12:14.768Z,5.30
2019-01-16T13:15:03.424Z,5.87
2019-01-16T13:17:57.673Z,3.93
2019-01-16T13:20:58.495Z,5.90
2019-01-16T13:23:50.294Z,8.20
2019-01-16T13:26:41.550Z,6.33
2019-01-16T13:29:30.259Z,6.17
2019-01-16T13:32:27.674Z,6.97
2019-01-16T13:35:17.568Z,7.30
2019-01-16T13:38:09.370Z,7.80
2019-01-16T13:41:01.171Z,6.47
2019-01-16T13:43:39.826Z,7.43
2019-01-16T13:46:28.497Z,6.23
2019-01-16T13:49:23.223Z,7.20
2019-01-16T13:52:18.875Z,5.47
2019-01-16T13:55:04.262Z,7.60
2019-01-16T13:57:52.960Z,5.43
2019-01-16T14:00:37.106Z,5.10
2019-01-16T14:03:27.972Z,9.90
2019-01-16T14:06:19.366Z,6.23
2019-01-16T14:09:17.222Z,6.80
2019-01-16T14:12:14.950Z,6.37
2019-01-16T14:15:12.702Z,6.17
2019-01-16T14:18:10.395Z,8.07
2019-01-16T14:21:11.133Z,5.67
2019-01-16T14:23:52.077Z,8.67
2019-01-16T14:26:52.880Z,4.20
2019-01-16T14:29:41.593Z,7.00
2019-01-16T14:32:27.735Z,6.13
2019-01-16T14:35:21.602Z,6.80
2019-01-16T14:38:19.669Z,7.37
2019-01-16T14:41:11.309Z,6.03
2019-01-16T14:44:05.768Z,5.13
2019-01-16T14:46:57.461Z,5.23
2019-01-16T14:49:50.768Z,4.60
2019-01-16T14:52:54.566Z,6.87
2019-01-16T14:55:51.834Z,4.97
2019-01-16T14:58:38.275Z,5.30
2019-01-16T15:01:43.282Z,7.67
2019-01-16T15:04:30.543Z,4.13
2019-01-16T15:07:14.855Z,5.33
2019-01-16T15:09:58.234Z,7.27
2019-01-16T15:12:41.375Z,6.17
2019-01-16T15:15:33.058Z,4.53
2019-01-16T15:18:24.574Z,5.57
2019-01-16T15:21:12.134Z,6.60
2019-01-16T15:24:07.797Z,4.53
2019-01-16T15:26:49.305Z,3.60
2019-01-16T15:29:33.236Z,6.40
2019-01-16T15:32:30.474Z,5.53
2019-01-16T15:35:17.842Z,4.97
2019-01-16T15:38:09.390Z,10.83
2019-01-16T15:41:00.837Z,13.83
2019-01-16T15:43:52.648Z,6.40
2019-01-16T15:46:47.238Z,7.47
2019-01-16T15:49:39.446Z,7.00
2019-01-16T15:52:29.066Z,7.40
2019-01-16T15:55:17.760Z,5.87
2019-01-16T15:58:21.509Z,6.20
2019-01-16T16:01:25.073Z,7.87
2019-01-16T16:04:32.030Z,8.30
2019-01-16T16:07:29.651Z,7.23
2019-01-16T16:10:33.736Z,8.00
2019-01-16T16:13:30.739Z,9.43
2019-01-16T16:16:13.263Z,10.40
2019-01-16T16:19:07.761Z,6.77
2019-01-16T16:21:55.188Z,9.60
2019-01-16T16:24:46.805Z,8.53
2019-01-16T16:27:36.399Z,7.97
2019-01-16T16:30:39.574Z,9.37
2019-01-16T16:33:28.382Z,9.50
2019-01-16T16:36:18.814Z,10.10
2019-01-16T16:39:10.481Z,12.50
2019-01-16T16:42:00.431Z,15.20
2019-01-16T16:44:50.521Z,13.80
2019-01-16T16:47:45.945Z,12.43
2019-01-16T16:50:38.765Z,10.20
2019-01-16T16:53:30.213Z,8.30
2019-01-16T16:56:33.947Z,11.87
2019-01-16T16:59:21.291Z,11.00
2019-01-16T17:02:13.312Z,12.67
2019-01-16T17:05:04.984Z,9.63
2019-01-16T17:07:48.939Z,11.30
2019-01-16T17:10:37.421Z,10.93
2019-01-16T17:13:31.992Z,15.47
2019-01-16T17:16:20.379Z,16.40
2019-01-16T17:19:20.986Z,20.10
2019-01-16T17:22:15.031Z,13.97
2019-01-16T17:25:10.224Z,13.90
2019-01-16T17:28:01.183Z,15.93
2019-01-16T17:30:49.912Z,13.20
2019-01-16T17:33:38.609Z,10.70
2019-01-16T17:36:34.819Z,10.40
2019-01-16T17:39:32.801Z,10.77
2019-01-16T17:42:14.609Z,9.77
2019-01-16T17:45:11.730Z,10.47
2019-01-16T17:47:59.203Z,11.80
2019-01-16T17:50:49.611Z,7.20
2019-01-16T17:53:37.267Z,10.97
2019-01-16T17:56:38.298Z,12.27
2019-01-16T17:59:29.938Z,12.47
2019-01-16T18:02:19.494Z,16.37
2019-01-16T18:05:08.228Z,11.17
2019-01-16T18:08:02.949Z,11.30
2019-01-16T18:10:50.232Z,9.20
2019-01-16T18:13:28.071Z,9.93
2019-01-16T18:16:35.197Z,7.93
2019-01-16T18:19:16.206Z,9.77
2019-01-16T18:22:01.897Z,8.93
2019-01-16T18:24:51.923Z,9.80
2019-01-16T18:27:35.610Z,10.30
2019-01-16T18:30:42.200Z,10.90
2019-01-16T18:33:22.325Z,11.03
2019-01-16T18:36:10.183Z,8.93
2019-01-16T18:39:04.992Z,8.43
2019-01-16T18:41:43.206Z,12.77
2019-01-16T18:44:30.869Z,8.27
2019-01-16T18:47:18.190Z,11.70
2019-01-16T18:50:18.925Z,13.33
2019-01-16T18:53:19.885Z,15.53
2019-01-16T18:56:19.531Z,17.90
2019-01-16T18:59:02.258Z,12.17
2019-01-16T19:01:49.795Z,12.03
2019-01-16T19:04:39.530Z,12.30
2019-01-16T19:07:27.497Z,11.43
2019-01-16T19:10:23.078Z,12.37
2019-01-16T19:13:05.931Z,11.23
2019-01-16T19:16:00.460Z,9.10
2019-01-16T19:18:49.100Z,13.87
2019-01-16T19:21:36.183Z,9.47
2019-01-16T19:24:16.879Z,10.07
2019-01-16T19:27:11.591Z,10.17
2019-01-16T19:30:00.342Z,8.67
2019-01-16T19:32:47.645Z,10.23
2019-01-16T19:35:45.472Z,8.97
2019-01-16T19:38:32.937Z,12.03
2019-01-16T19:41:30.685Z,12.30
2019-01-16T19:44:28.584Z,13.03
2019-01-16T19:47:17.281Z,16.67
2019-01-16T19:50:00.716Z,13.57
2019-01-16T19:52:48.346Z,10.90
2019-01-16T19:55:36.074Z,9.03
2019-01-16T19:58:15.319Z,19.07
2019-01-16T20:00:53.113Z,13.43
2019-01-16T20:03:31.113Z,22.80
2019-01-16T20:06:18.673Z,17.97
2019-01-16T20:09:06.238Z,13.03
2019-01-16T20:11:46.877Z,13.57
2019-01-16T20:14:32.254Z,11.63
2019-01-16T20:17:20.953Z,11.93
2019-01-16T20:20:15.471Z,8.97
2019-01-16T20:23:11.079Z,12.00
2019-01-16T20:25:57.659Z,12.73
2019-01-16T20:29:04.462Z,13.17
2019-01-16T20:32:05.226Z,9.37
2019-01-16T20:34:53.005Z,11.87
2019-01-16T20:37:40.577Z,11.33
2019-01-16T20:40:23.970Z,13.23
2019-01-16T20:43:03.689Z,12.17
2019-01-16T20:45:51.502Z,9.73
2019-01-16T20:48:40.085Z,11.97
2019-01-16T20:51:27.363Z,12.77
2019-01-16T20:54:31.450Z,12.27
2019-01-16T20:57:10.598Z,12.83
2019-01-16T20:59:59.448Z,11.77
2019-01-16T21:02:42.163Z,12.20
2019-01-16T21:05:30.853Z,13.43
2019-01-16T21:08:10.240Z,12.60
2019-01-16T21:11:03.555Z,27.67
2019-01-16T21:13:45.187Z,27.37
2019-01-16T21:16:32.869Z,23.00
2019-01-16T21:19:22.099Z,16.23
2019-01-16T21:22:09.712Z,25.80
2019-01-16T21:24:48.117Z,22.20
2019-01-16T21:27:39.940Z,24.63
2019-01-16T21:30:37.936Z,19.17
2019-01-16T21:33:30.981Z,17.23
2019-01-16T21:36:17.998Z,20.20
2019-01-16T21:38:57.656Z,20.67
2019-01-16T21:41:44.037Z,21.47
2019-01-16T21:44:32.701Z,21.07
2019-01-16T21:47:36.509Z,25.07
2019-01-16T21:50:23.130Z,23.30
2019-01-16T21:53:17.723Z,17.67
2019-01-16T21:56:04.608Z,18.20
2019-01-16T21:58:47.524Z,17.50
2019-01-16T22:01:37.173Z,12.20
2019-01-16T22:04:31.688Z,16.53
2019-01-16T22:07:12.449Z,12.00
2019-01-16T22:09:54.751Z,15.83
2019-01-16T22:12:43.455Z,12.20
2019-01-16T22:15:33.226Z,18.07
2019-01-16T22:18:24.924Z,14.70
2019-01-16T22:21:22.780Z,16.47
2019-01-16T22:24:11.342Z,17.00
2019-01-16T22:27:08.865Z,17.47
2019-01-16T22:30:04.740Z,13.47
2019-01-16T22:32:45.382Z,16.60
2019-01-16T22:35:32.022Z,15.83
2019-01-16T22:38:29.329Z,17.47
2019-01-16T22:41:09.625Z,14.60
2019-01-16T22:43:58.315Z,15.00
2019-01-16T22:46:45.661Z,18.53
2019-01-16T22:49:26.307Z,17.00
2019-01-16T22:52:30.195Z,15.03
2019-01-16T22:55:17.786Z,13.67
2019-01-16T22:57:57.880Z,18.53
2019-01-16T23:00:52.801Z,16.30
2019-01-16T23:03:40.289Z,16.37
2019-01-16T23:06:28.068Z,14.63
2019-01-16T23:09:19.793Z,16.43
2019-01-16T23:12:20.571Z,13.27
2019-01-16T23:15:12.040Z,17.20
2019-01-16T23:18:12.596Z,20.23
2019-01-16T23:20:59.006Z,15.23
2019-01-16T23:23:49.880Z,14.53
2019-01-16T23:26:36.848Z,10.80
2019-01-16T23:29:25.593Z,11.37
2019-01-16T23:32:23.392Z,11.47
2019-01-16T23:35:19.165Z,15.23
2019-01-16T23:38:16.839Z,13.77
2019-01-16T23:41:04.476Z,12.97
2019-01-16T23:43:56.324Z,13.30
2019-01-16T23:46:48.050Z,14.60
2019-01-16T23:49:45.764Z,19.30
2019-01-16T23:52:34.383Z,12.07
2019-01-16T23:55:23.523Z,18.40
2019-01-16T23:58:18.384Z,14.87
